Terminal Aerodrome Forecast
Issued by NWS

Home | Current Version | Previous Version | Text Only | Print | Product List | Glossary On
Versions: 1 2 3 4 5 6 7 8 9 10 11 12 13 14 15 16 17
000
FTUS45 KVEF 211600 AAB
TAFEED
TAF AMD
KEED 211609Z 2116/2212 28006KT P6SM VCTS BKN100CB
     FM211700 19010KT P6SM SCT100
     FM212000 19010G20KT P6SM BKN100
      TEMPO 2121/2201 -TSRA BKN100CB
     FM220400 22010KT P6SM BKN110=

USA.gov is the U.S. government's official web portal to all federal, state and local government web resources and services.